Time;durP1;ratioP1;P1;durP2;ratioP2;P2;SDS_P1;SDS_P2;PMS_P1;PMS_P2;Temp;Humidity;BMP_temperature;BMP_pressure;BME280_temperature;BME280_humidity;BME280_pressure;Samples;Min_cycle;Max_cycle;Signal;HPM_P1;HPM_P2
2022/02/08 00:02:01;;;;;;;2.08;1.73;;;;;;;15.72;31.01;101456.00;5043855;28;20041;-72
2022/02/08 00:04:29;;;;;;;2.27;1.67;;;;;;;15.77;30.72;101456.00;5049105;28;20042;-77
2022/02/08 00:06:57;;;;;;;1.60;1.13;;;;;;;15.81;31.00;101469.19;5043296;28;20042;-77
2022/02/08 00:09:26;;;;;;;1.17;0.83;;;;;;;15.68;31.08;101467.03;5050148;28;20029;-80
2022/02/08 00:11:53;;;;;;;3.33;2.43;;;;;;;15.67;31.57;101456.91;5025281;28;20113;-81
2022/02/08 00:14:20;;;;;;;3.33;1.83;;;;;;;15.79;30.95;101460.16;5018145;28;20077;-81
2022/02/08 00:16:47;;;;;;;2.00;1.17;;;;;;;15.64;31.19;101471.53;5018868;28;20672;-81
2022/02/08 00:19:14;;;;;;;1.53;1.10;;;;;;;15.61;31.47;101486.19;5017933;28;20053;-80
2022/02/08 00:21:41;;;;;;;5.47;1.43;;;;;;;15.71;31.30;101483.34;5020583;28;20045;-80
2022/02/08 00:24:08;;;;;;;1.13;0.83;;;;;;;15.58;31.75;101472.69;5017921;28;20077;-78
2022/02/08 00:26:35;;;;;;;2.27;1.37;;;;;;;15.58;31.71;101472.69;5022760;28;20057;-78
2022/02/08 00:29:03;;;;;;;2.17;1.80;;;;;;;15.46;32.12;101475.03;5032261;28;20050;-79
2022/02/08 00:31:30;;;;;;;7.23;1.03;;;;;;;15.16;32.46;101451.56;5021349;28;20492;-76
2022/02/08 00:33:57;;;;;;;2.53;1.67;;;;;;;15.37;32.40;101470.00;5017773;28;20045;-72
2022/02/08 00:36:24;;;;;;;2.47;1.43;;;;;;;15.35;32.37;101477.06;5021360;28;20125;-79
2022/02/08 00:38:52;;;;;;;2.40;1.40;;;;;;;15.15;32.67;101455.53;5025640;28;20133;-73
2022/02/08 00:41:22;;;;;;;2.27;1.40;;;;;;;15.26;32.79;101479.66;5034520;28;20061;-74
2022/02/08 00:46:29;;;;;;;2.53;1.30;;;;;;;15.17;33.02;101454.06;5025572;28;20057;-76
2022/02/08 00:48:59;;;;;;;;;;;;;;;14.89;33.42;101458.44;5029892;28;20561;-79
2022/02/08 00:51:28;;;;;;;;;;;;;;;14.76;33.85;101473.09;5031042;28;19959;-80
2022/02/08 00:53:55;;;;;;;1.60;0.90;;;;;;;15.04;33.42;101460.34;5033004;28;20355;-77
2022/02/08 00:56:24;;;;;;;1.83;1.10;;;;;;;14.98;33.27;101432.53;5029806;28;20072;-78
2022/02/08 00:58:53;;;;;;;2.17;1.23;;;;;;;15.12;32.91;101433.59;5028894;28;20084;-77
2022/02/08 01:01:20;;;;;;;3.27;1.43;;;;;;;15.18;33.26;101452.13;5026200;28;20068;-77
2022/02/08 01:03:47;;;;;;;4.77;1.60;;;;;;;15.24;33.19;101448.13;5027902;28;20049;-79
2022/02/08 01:06:16;;;;;;;1.33;0.80;;;;;;;15.12;33.54;101456.94;5024484;28;20055;-80
2022/02/08 01:08:43;;;;;;;0.73;0.60;;;;;;;15.14;34.00;101456.63;5027240;28;20045;-82
2022/02/08 01:11:12;;;;;;;2.40;1.30;;;;;;;15.22;33.56;101441.97;5027403;28;20201;-79
2022/02/08 01:13:40;;;;;;;2.33;1.50;;;;;;;15.21;33.78;101436.63;5021565;28;20583;-79
2022/02/08 01:16:08;;;;;;;2.83;1.00;;;;;;;15.04;34.28;101451.91;5023505;28;20579;-75
2022/02/08 01:18:39;;;;;;;4.20;1.40;;;;;;;15.12;34.14;101439.22;5026654;28;20090;-76
2022/02/08 01:21:06;;;;;;;4.07;1.73;;;;;;;15.11;33.96;101410.25;5032120;28;20128;-77
2022/02/08 01:23:33;;;;;;;1.53;0.77;;;;;;;15.17;34.23;101440.00;5033453;28;20486;-76
2022/02/08 01:26:08;;;;;;;2.33;1.43;;;;;;;15.15;34.44;101439.47;5030116;28;20140;-76
2022/02/08 01:29:01;;;;;;;1.50;0.80;;;;;;;15.04;34.67;101439.81;5030530;28;20564;-76
2022/02/08 01:31:29;;;;;;;1.53;1.07;;;;;;;15.17;34.64;101431.56;5022747;28;20046;-74
2022/02/08 01:37:00;;;;;;;2.07;1.40;;;;;;;15.06;35.06;101440.38;5024222;28;20049;-72
2022/02/08 01:39:38;;;;;;;2.60;1.10;;;;;;;14.98;35.25;101444.63;5026051;28;20050;-77
2022/02/08 01:47:48;;;;;;;1.67;1.00;;;;;;;14.88;35.26;101416.56;5012701;28;20140;-76
2022/02/08 01:50:17;;;;;;;1.13;0.97;;;;;;;15.04;35.33;101426.59;5028183;28;20133;-77
2022/02/08 01:52:45;;;;;;;1.30;0.88;;;;;;;15.03;35.37;101435.31;5031282;28;20053;-73
2022/02/08 01:55:14;;;;;;;2.87;1.10;;;;;;;15.00;35.09;101402.13;5028041;28;20131;-75
2022/02/08 01:57:41;;;;;;;2.37;1.27;;;;;;;15.08;35.14;101424.88;5028536;28;20149;-73
2022/02/08 02:00:10;;;;;;;0.90;0.73;;;;;;;14.93;35.49;101408.06;5022790;28;20132;-73
2022/02/08 02:02:36;;;;;;;1.60;1.10;;;;;;;14.95;35.50;101433.13;5023511;28;20132;-77
2022/02/08 02:05:05;;;;;;;2.03;0.67;;;;;;;15.06;35.43;101434.75;5029521;28;20077;-77
2022/02/08 02:07:34;;;;;;;3.03;1.27;;;;;;;15.06;35.38;101421.50;5026694;28;20996;-77
2022/02/08 02:10:03;;;;;;;1.10;0.83;;;;;;;14.97;35.64;101431.69;5026704;28;21279;-80
2022/02/08 02:12:30;;;;;;;2.63;0.77;;;;;;;14.88;35.92;101427.81;5029670;28;20133;-81
2022/02/08 02:15:02;;;;;;;1.27;1.10;;;;;;;14.73;36.38;101439.09;5031370;28;20385;-72
2022/02/08 02:17:29;;;;;;;1.17;0.90;;;;;;;14.67;36.80;101432.66;5020919;28;20431;-74
2022/02/08 02:19:55;;;;;;;2.03;0.90;;;;;;;14.45;37.00;101425.38;5041644;28;20050;-76
2022/02/08 02:22:22;;;;;;;1.80;1.50;;;;;;;14.57;37.22;101429.91;5018550;28;20042;-78
2022/02/08 02:24:49;;;;;;;4.33;0.90;;;;;;;14.28;37.63;101410.81;5021614;28;20153;-80
2022/02/08 02:27:16;;;;;;;1.50;0.80;;;;;;;14.51;37.35;101439.47;5023739;28;20051;-77
2022/02/08 02:29:42;;;;;;;2.07;1.00;;;;;;;14.54;37.38;101442.53;5022409;28;20504;-82
2022/02/08 02:32:10;;;;;;;5.43;3.57;;;;;;;14.57;37.42;101452.38;5025945;28;20144;-82
2022/02/08 02:34:49;;;;;;;0.80;0.80;;;;;;;14.32;37.46;101399.84;5026794;28;20068;-83
2022/02/08 02:37:18;;;;;;;0.83;0.63;;;;;;;14.51;37.49;101412.19;5024994;28;20460;-84
2022/02/08 02:39:44;;;;;;;2.13;1.00;;;;;;;14.45;37.74;101442.25;5036108;28;20037;-81
2022/02/08 02:42:13;;;;;;;1.23;1.13;;;;;;;14.46;37.72;101426.22;5043476;28;20036;-80
2022/02/08 02:44:40;;;;;;;1.60;0.80;;;;;;;14.31;37.88;101407.44;5044074;28;20045;-83
2022/02/08 02:47:08;;;;;;;1.07;0.63;;;;;;;14.41;38.04;101429.91;5050689;28;20041;-82
2022/02/08 02:49:35;;;;;;;0.70;0.70;;;;;;;14.55;37.74;101434.94;5039980;28;20072;-77
2022/02/08 02:52:06;;;;;;;3.50;3.10;;;;;;;14.44;38.18;101426.50;5027828;28;20048;-77
2022/02/08 02:54:34;;;;;;;2.40;2.30;;;;;;;14.44;38.12;101423.72;5020337;28;20423;-76
2022/02/08 02:57:01;;;;;;;3.00;2.80;;;;;;;14.37;38.33;101425.97;5027167;28;20148;-76
2022/02/08 02:59:32;;;;;;;1.07;0.97;;;;;;;14.40;38.41;101430.19;5023407;28;20073;-77
2022/02/08 03:04:41;;;;;;;;;;;;;;;14.13;38.82;101408.88;5024093;28;20053;-85
2022/02/08 03:20:51;;;;;;;4.07;3.60;;;;;;;14.08;39.48;101391.19;5026232;28;20141;-74
2022/02/08 03:23:20;;;;;;;1.40;0.70;;;;;;;14.13;39.53;101396.81;5026522;28;20056;-77
2022/02/08 03:25:47;;;;;;;2.77;1.23;;;;;;;14.11;39.55;101385.00;5023410;28;20050;-82
2022/02/08 03:28:14;;;;;;;0.87;0.50;;;;;;;14.06;39.57;101385.03;5022898;28;20148;-86
2022/02/08 03:30:41;;;;;;;0.80;0.60;;;;;;;13.87;39.50;101368.75;5022943;28;20052;-74
2022/02/08 03:33:09;;;;;;;1.57;1.00;;;;;;;14.05;39.68;101372.09;5025111;28;20153;-76
2022/02/08 03:35:36;;;;;;;1.23;0.80;;;;;;;13.89;39.84;101374.09;5018656;28;20077;-79
2022/02/08 03:38:05;;;;;;;3.20;0.80;;;;;;;14.03;40.07;101399.66;5022409;28;20081;-80
2022/02/08 03:45:45;;;;;;;1.27;1.02;;;;;;;14.08;39.69;101374.34;5027274;28;20624;-81
2022/02/08 03:48:15;;;;;;;0.85;0.68;;;;;;;13.92;40.08;101348.28;5023882;28;20061;-82
2022/02/08 03:50:44;;;;;;;0.45;0.45;;;;;;;13.87;40.30;101351.91;5023639;28;20099;-77
2022/02/08 03:53:12;;;;;;;0.55;0.55;;;;;;;14.22;39.33;101345.41;5022864;28;20416;-78
2022/02/08 03:55:39;;;;;;;1.23;1.10;;;;;;;14.19;39.32;101337.53;5018280;28;20453;-85
2022/02/08 03:58:06;;;;;;;3.10;2.87;;;;;;;14.16;39.59;101359.75;5025902;28;20089;-80
2022/02/08 04:00:42;;;;;;;4.00;2.57;;;;;;;14.40;39.20;101360.78;5018242;28;20081;-80
2022/02/08 04:03:12;;;;;;;3.10;2.80;;;;;;;14.41;39.09;101368.06;5057222;28;20514;-80
2022/02/08 04:05:44;;;;;;;3.70;3.07;;;;;;;14.35;39.34;101368.38;5021444;28;20048;-81
2022/02/08 04:08:14;;;;;;;1.77;1.67;;;;;;;13.89;39.74;101344.06;5025129;28;20432;-79
2022/02/08 04:10:43;;;;;;;1.02;0.80;;;;;;;14.31;39.33;101370.06;5018603;28;20052;-79
2022/02/08 04:13:24;;;;;;;1.33;0.90;;;;;;;14.10;39.54;101349.63;5025999;28;20107;-78
2022/02/08 04:16:12;;;;;;;3.10;0.90;;;;;;;14.37;39.03;101375.41;5021559;28;20485;-83
2022/02/08 04:19:12;;;;;;;2.23;1.03;;;;;;;14.26;39.20;101415.91;5025184;28;20479;-76
2022/02/08 04:32:46;;;;;;;0.53;0.53;;;;;;;13.79;40.10;101374.97;5020152;28;20164;-76
2022/02/08 04:46:02;;;;;;;0.43;0.40;;;;;;;13.89;39.34;101337.59;5021469;28;20088;-80
2022/02/08 04:51:17;;;;;;;0.50;0.50;;;;;;;13.74;40.22;101370.19;5029522;28;20136;-76
2022/02/08 04:54:01;;;;;;;0.52;0.47;;;;;;;13.69;40.38;101349.69;5024772;28;20060;-78
2022/02/08 04:59:30;;;;;;;0.40;0.40;;;;;;;13.73;39.81;101325.56;5021938;28;20132;-77
2022/02/08 05:02:13;;;;;;;0.43;0.43;;;;;;;13.68;40.39;101360.09;5023626;28;20137;-80
2022/02/08 05:45:32;;;;;;;0.47;0.40;;;;;;;13.40;41.91;101319.44;5054469;28;20132;-82
2022/02/08 05:48:03;;;;;;;1.00;0.70;;;;;;;13.46;41.98;101329.50;5022773;28;20049;-81
2022/02/08 05:50:42;;;;;;;0.50;0.50;;;;;;;13.31;42.37;101315.50;5023484;28;20085;-80
2022/02/08 05:53:28;;;;;;;1.20;0.67;;;;;;;13.33;41.98;101321.63;5030939;28;20225;-80
2022/02/08 05:55:58;;;;;;;1.17;0.77;;;;;;;13.22;42.40;101305.91;5024569;28;20187;-80
2022/02/08 05:58:26;;;;;;;0.63;0.60;;;;;;;13.31;42.44;101323.06;5030180;28;20140;-83
2022/02/08 06:00:53;;;;;;;0.30;0.30;;;;;;;13.20;42.35;101297.78;5024407;28;20527;-82
2022/02/08 06:03:22;;;;;;;0.52;0.43;;;;;;;13.26;42.43;101346.31;5022978;28;20153;-77
2022/02/08 06:05:50;;;;;;;2.80;1.23;;;;;;;13.31;42.30;101315.50;5023626;28;20046;-81
2022/02/08 06:08:19;;;;;;;3.22;0.68;;;;;;;13.21;42.22;101281.78;5029104;28;20108;-83
2022/02/08 06:10:55;;;;;;;3.33;3.13;;;;;;;13.31;42.45;101323.91;5037462;28;20055;-76
2022/02/08 06:13:22;;;;;;;0.60;0.50;;;;;;;13.09;42.53;101290.47;5021692;28;20478;-75
2022/02/08 06:15:51;;;;;;;1.00;0.90;;;;;;;13.04;42.84;101305.34;5025203;28;20513;-75
2022/02/08 06:18:17;;;;;;;0.37;0.37;;;;;;;13.11;42.64;101304.22;5018774;28;20148;-80
2022/02/08 06:20:44;;;;;;;3.47;1.03;;;;;;;13.26;42.44;101298.66;5026988;28;20140;-80
2022/02/08 06:23:11;;;;;;;1.57;1.03;;;;;;;13.25;42.36;101333.44;5020098;28;20128;-83
2022/02/08 06:25:38;;;;;;;1.73;1.03;;;;;;;13.21;42.19;101316.28;5020398;28;20120;-82
2022/02/08 06:28:05;;;;;;;6.33;0.97;;;;;;;13.25;42.33;101299.78;5016921;28;20207;-75
2022/02/08 06:30:32;;;;;;;1.30;0.70;;;;;;;12.85;42.42;101248.13;5026139;28;20522;-79
2022/02/08 06:32:58;;;;;;;1.63;0.57;;;;;;;13.19;42.26;101301.69;5034183;28;20133;-78
2022/02/08 06:35:29;;;;;;;1.50;1.40;;;;;;;13.08;42.18;101286.00;5025425;28;20049;-80
2022/02/08 06:37:59;;;;;;;0.43;0.40;;;;;;;13.16;42.16;101301.41;5024212;28;20611;-72
2022/02/08 06:40:27;;;;;;;3.30;1.10;;;;;;;13.18;42.09;101302.81;5021534;28;20132;-73
2022/02/08 06:42:59;;;;;;;0.55;0.52;;;;;;;13.19;42.07;101303.66;5026158;28;20050;-72
2022/02/08 06:45:26;;;;;;;0.87;0.73;;;;;;;13.16;41.99;101307.88;5024331;28;20049;-73
2022/02/08 06:47:57;;;;;;;3.10;0.90;;;;;;;13.15;42.10;101297.78;5037312;28;20095;-73
2022/02/08 06:50:24;;;;;;;0.73;0.47;;;;;;;13.21;41.62;101293.84;5023672;28;20128;-75
2022/02/08 06:52:51;;;;;;;0.50;0.50;;;;;;;13.15;41.70;101294.13;5018702;28;20056;-74
2022/02/08 06:55:18;;;;;;;1.17;0.80;;;;;;;13.07;41.81;101298.34;5022907;28;20057;-69
2022/02/08 06:57:59;;;;;;;0.30;0.30;;;;;;;13.07;41.65;101297.50;5019975;28;20136;-70
2022/02/08 07:00:34;;;;;;;0.37;0.37;;;;;;;12.88;41.64;101261.56;5022842;28;20508;-69
2022/02/08 07:03:12;;;;;;;0.30;0.30;;;;;;;13.16;41.42;101299.47;5016286;28;20045;-72
2022/02/08 07:05:40;;;;;;;5.70;0.67;;;;;;;13.16;41.37;101305.09;5017429;28;20103;-71
2022/02/08 07:08:10;;;;;;;0.90;0.70;;;;;;;13.23;41.15;101310.38;5018890;28;20053;-70
2022/02/08 07:10:38;;;;;;;1.40;0.93;;;;;;;13.18;40.94;101280.38;5021009;28;20564;-71
2022/02/08 07:13:08;;;;;;;1.30;0.53;;;;;;;13.31;41.01;101312.69;5024847;28;20484;-71
2022/02/08 07:15:36;;;;;;;2.63;0.82;;;;;;;13.21;41.20;101307.03;5022970;28;20501;-72
2022/02/08 07:18:04;;;;;;;2.05;1.27;;;;;;;12.87;41.03;101270.28;5020642;28;20095;-71
2022/02/08 07:20:32;;;;;;;0.40;0.40;;;;;;;13.10;41.26;101310.97;5020784;28;20132;-71
2022/02/08 07:22:59;;;;;;;0.37;0.37;;;;;;;13.11;41.28;101313.47;5015641;28;20092;-72
2022/02/08 07:25:31;;;;;;;2.73;0.93;;;;;;;13.13;41.20;101313.19;5043497;28;20173;-70
2022/02/08 07:27:58;;;;;;;1.90;0.87;;;;;;;13.23;40.84;101311.25;5011548;28;20136;-71
2022/02/08 07:30:27;;;;;;;1.90;0.70;;;;;;;13.35;40.36;101316.59;5016359;28;22288;-71
2022/02/08 07:32:55;;;;;;;1.30;0.73;;;;;;;13.28;40.53;101307.63;5016588;28;20038;-69
2022/02/08 07:35:45;;;;;;;0.80;0.70;;;;;;;13.09;40.67;101306.47;5021218;28;20080;-71
2022/02/08 07:38:21;;;;;;;;;;;;;;;12.87;41.18;101315.97;5023309;28;20487;-73
2022/02/08 07:43:19;;;;;;;1.07;0.73;;;;;;;12.87;41.14;101298.31;5017871;28;20500;-72
2022/02/08 07:45:49;;;;;;;0.70;0.70;;;;;;;12.80;41.11;101276.16;5016934;28;20060;-70
2022/02/08 07:48:16;;;;;;;;;;;;;;;12.79;41.26;101322.97;5018466;28;20089;-71
2022/02/08 07:50:50;;;;;;;0.50;0.43;;;;;;;13.08;40.63;101330.84;5030605;28;19925;-72
2022/02/08 07:53:19;;;;;;;1.35;0.65;;;;;;;12.84;40.81;101304.47;5045163;28;20060;-71
2022/02/08 07:55:46;;;;;;;3.23;0.50;;;;;;;12.93;41.10;101328.88;5025246;28;20132;-71
2022/02/08 07:58:16;;;;;;;1.20;0.70;;;;;;;12.95;41.08;101351.03;5023670;28;20061;-70
2022/02/08 08:00:43;;;;;;;1.37;1.00;;;;;;;13.10;40.67;101333.41;5017773;28;20109;-71
2022/02/08 08:03:10;;;;;;;3.23;0.70;;;;;;;12.97;40.81;101296.38;5021338;28;20531;-68
2022/02/08 08:05:37;;;;;;;0.63;0.63;;;;;;;13.43;40.20;101335.66;5042674;28;20033;-70
2022/02/08 08:08:04;;;;;;;0.90;0.70;;;;;;;13.65;39.87;101338.19;5044799;28;20473;-71
2022/02/08 08:10:31;;;;;;;0.60;0.60;;;;;;;13.82;39.44;101342.69;5041590;28;20029;-71
2022/02/08 08:13:00;;;;;;;2.40;1.13;;;;;;;13.93;39.16;101350.78;5047248;28;20049;-72
2022/02/08 08:18:36;;;;;;;0.33;0.33;;;;;;;14.38;38.35;101348.13;5053252;28;20830;-73
2022/02/08 08:21:03;;;;;;;1.35;1.02;;;;;;;14.30;37.83;101327.09;5045218;28;20030;-71
2022/02/08 08:23:30;;;;;;;1.60;0.83;;;;;;;14.57;37.67;101345.56;5050396;28;20049;-72
2022/02/08 08:25:57;;;;;;;1.63;0.60;;;;;;;14.63;37.47;101341.59;5031869;28;20480;-72
2022/02/08 08:28:24;;;;;;;1.23;0.70;;;;;;;14.79;37.15;101340.38;5027553;28;20564;-73
2022/02/08 08:30:52;;;;;;;2.10;2.00;;;;;;;14.98;36.79;101365.03;5027357;28;20128;-71
2022/02/08 08:33:19;;;;;;;3.00;1.17;;;;;;;15.07;36.38;101346.41;5018819;28;20092;-72
2022/02/08 08:36:05;;;;;;;0.67;0.67;;;;;;;14.99;36.27;101310.47;5023414;28;20496;-71
2022/02/08 08:38:33;;;;;;;1.48;1.25;;;;;;;15.61;35.92;101365.13;5028021;28;20141;-72
2022/02/08 08:53:58;;;;;;;0.80;0.80;;;;;;;16.81;33.45;101363.28;5023833;28;20057;-71
2022/02/08 08:56:26;;;;;;;1.07;0.97;;;;;;;16.89;33.16;101353.31;5019454;28;20076;-72
2022/02/08 08:58:53;;;;;;;1.43;0.90;;;;;;;16.93;33.02;101319.69;5019047;28;20161;-72
2022/02/08 09:01:20;;;;;;;1.23;1.00;;;;;;;17.12;32.61;101337.44;5023008;28;20069;-73
2022/02/08 09:03:48;;;;;;;2.10;1.10;;;;;;;17.51;32.37;101347.56;5020505;28;20038;-72
2022/02/08 09:06:20;;;;;;;1.60;1.10;;;;;;;17.55;32.11;101359.09;5023683;28;20058;-72
2022/02/08 09:08:47;;;;;;;1.00;1.00;;;;;;;17.66;32.00;101338.81;5020047;28;20049;-73
2022/02/08 09:13:59;;;;;;;2.85;1.05;;;;;;;17.89;31.03;101348.34;5025170;28;20888;-72
2022/02/08 09:19:31;;;;;;;0.95;0.75;;;;;;;18.27;30.93;101361.47;5024262;28;20580;-73
2022/02/08 09:29:55;;;;;;;7.05;1.58;;;;;;;19.11;29.40;101370.44;5020912;28;20516;-72
2022/02/08 09:32:40;;;;;;;1.67;1.08;;;;;;;19.63;29.39;101368.09;5026759;28;20145;-72
2022/02/08 09:35:08;;;;;;;1.55;0.93;;;;;;;19.91;28.66;101367.94;5021324;28;20092;-72
2022/02/08 09:37:36;;;;;;;4.18;1.20;;;;;;;20.20;28.49;101349.56;5026509;28;20077;-72
2022/02/08 09:40:06;;;;;;;3.15;1.30;;;;;;;20.59;28.08;101360.94;5028603;28;20081;-72
2022/02/08 09:42:38;;;;;;;2.85;1.90;;;;;;;20.48;28.06;101356.72;5025300;28;20140;-73
2022/02/08 09:45:16;;;;;;;4.10;1.60;;;;;;;20.51;27.95;101360.91;5023437;28;20113;-73
2022/02/08 09:48:00;;;;;;;7.18;1.52;;;;;;;20.40;27.74;101363.16;5024925;28;20360;-72
2022/02/08 09:50:32;;;;;;;1.48;1.27;;;;;;;20.52;27.82;101365.44;5026540;28;20156;-72
2022/02/08 09:53:05;;;;;;;4.47;1.77;;;;;;;20.70;27.70;101366.31;5029495;28;20073;-72
2022/02/08 09:55:39;;;;;;;1.52;1.42;;;;;;;21.22;27.30;101383.44;5023591;28;20893;-72
2022/02/08 09:58:08;;;;;;;2.08;1.60;;;;;;;21.29;26.99;101375.28;5027408;28;20088;-72
2022/02/08 10:00:37;;;;;;;3.15;1.65;;;;;;;21.28;26.86;101371.59;5029719;28;20120;-73
2022/02/08 10:03:05;;;;;;;2.05;1.45;;;;;;;21.67;26.63;101371.78;5022314;28;20763;-73
2022/02/08 10:06:04;;;;;;;2.85;1.83;;;;;;;22.23;26.35;101372.72;5028226;28;20053;-73
2022/02/08 10:08:36;;;;;;;4.30;1.67;;;;;;;22.48;25.98;101380.28;5023744;28;20092;-72
2022/02/08 10:11:11;;;;;;;5.47;2.22;;;;;;;22.58;25.64;101392.47;5024860;28;20165;-73
2022/02/08 10:24:21;;;;;;;2.40;1.67;;;;;;;24.49;25.09;101400.34;5026764;28;20080;-72
2022/02/08 10:37:49;;;;;;;3.40;2.55;;;;;;;25.00;23.89;101397.16;5027677;28;20440;-73
2022/02/08 10:40:24;;;;;;;4.95;1.90;;;;;;;25.16;23.60;101397.25;5019667;28;20141;-74
2022/02/08 10:42:58;;;;;;;2.80;2.13;;;;;;;25.19;22.65;101380.22;5021488;28;20064;-72
2022/02/08 10:45:33;;;;;;;4.28;2.08;;;;;;;25.51;23.39;101395.53;5023712;28;20050;-73
2022/02/08 10:48:03;;;;;;;3.85;2.70;;;;;;;25.11;22.71;101398.34;5023259;28;20137;-73
2022/02/08 10:50:32;;;;;;;4.95;2.63;;;;;;;24.75;23.18;101402.88;5022901;28;20152;-73
2022/02/08 10:53:02;;;;;;;8.30;2.28;;;;;;;25.13;23.31;101390.28;5027001;28;20538;-73
2022/02/08 11:00:52;;;;;;;6.55;2.53;;;;;;;25.81;22.79;101385.78;5020806;28;20559;-74
2022/02/08 11:03:27;;;;;;;4.70;3.03;;;;;;;25.86;22.62;101406.41;5017902;28;20133;-74
2022/02/08 11:08:50;;;;;;;3.80;2.20;;;;;;;25.97;22.48;101404.66;5022373;28;20153;-73
2022/02/08 11:11:57;;;;;;;5.75;2.72;;;;;;;26.44;22.39;101403.09;5023106;28;20554;-74
2022/02/08 11:22:41;;;;;;;5.13;2.88;;;;;;;26.57;21.86;101358.03;5023687;28;20143;-74
2022/02/08 11:27:51;;;;;;;6.88;3.45;;;;;;;26.68;21.79;101391.47;5024699;28;20504;-74
2022/02/08 11:30:31;;;;;;;7.55;2.65;;;;;;;26.75;21.72;101395.72;5016754;28;20148;-74
2022/02/08 11:33:11;;;;;;;5.28;3.05;;;;;;;26.90;21.77;101392.84;5042181;28;20045;-73
2022/02/08 11:49:43;;;;;;;4.50;3.22;;;;;;;28.01;19.84;101395.38;5029379;28;20080;-73
2022/02/08 12:00:33;;;;;;;9.40;3.38;;;;;;;30.90;18.79;101372.72;5024806;28;20857;-74
2022/02/08 12:03:39;;;;;;;4.28;3.40;;;;;;;31.69;18.48;101341.44;5027517;28;20548;-73
2022/02/08 12:08:54;;;;;;;5.35;2.95;;;;;;;32.58;16.26;101358.19;5025295;28;20041;-74
2022/02/08 12:28:51;;;;;;;4.30;2.50;;;;;;;31.72;15.88;101369.53;5024992;28;20144;-77
2022/02/08 12:34:03;;;;;;;8.18;3.30;;;;;;;31.79;15.05;101363.75;5022172;28;20064;-72
2022/02/08 12:55:56;;;;;;;5.40;3.25;;;;;;;34.11;14.47;101325.09;5046109;28;20045;-72
2022/02/08 12:58:48;;;;;;;3.42;2.70;;;;;;;34.54;13.70;101321.09;5033042;28;20517;-71
2022/02/08 13:01:39;;;;;;;5.95;2.90;;;;;;;34.32;13.57;101332.81;5029365;28;20073;-74
2022/02/08 13:04:41;;;;;;;5.85;4.22;;;;;;;34.33;13.30;101314.19;5039926;28;20125;-74
2022/02/08 14:02:00;;;;;;;3.03;1.80;;;;;;;22.53;21.93;101261.72;5028312;28;20128;-73
2022/02/08 14:07:33;;;;;;;3.42;2.03;;;;;;;22.03;22.60;101248.25;5009906;28;20141;-72
2022/02/08 14:15:46;;;;;;;4.70;1.60;;;;;;;21.59;23.84;101233.38;5019056;28;20429;-74
2022/02/08 14:21:14;;;;;;;4.53;2.03;;;;;;;21.70;24.05;101228.97;5023376;28;20060;-73
2022/02/08 14:24:01;;;;;;;4.88;1.30;;;;;;;21.60;23.87;101240.72;5023171;28;20088;-73
2022/02/08 15:09:59;;;;;;;2.72;1.23;;;;;;;21.08;24.23;101212.38;5024588;28;20136;-72
2022/02/08 15:12:29;;;;;;;7.90;1.85;;;;;;;21.13;24.32;101212.19;5028107;28;20085;-72
2022/02/08 15:17:26;;;;;;;4.00;1.88;;;;;;;21.13;24.50;101209.34;5023446;28;20140;-72
2022/02/08 15:19:54;;;;;;;2.75;1.65;;;;;;;20.89;24.77;101182.34;5023203;28;20104;-73
2022/02/08 15:22:21;;;;;;;4.82;2.20;;;;;;;20.98;24.84;101203.03;5035206;28;20117;-71
2022/02/08 15:24:48;;;;;;;4.70;1.73;;;;;;;21.13;24.86;101221.56;5047065;28;20026;-72
2022/02/08 15:27:15;;;;;;;2.67;1.08;;;;;;;21.01;24.67;101212.88;5029410;28;20076;-72
2022/02/08 15:29:43;;;;;;;4.80;1.85;;;;;;;20.97;24.36;101217.56;5024387;28;20512;-72
2022/02/08 15:32:15;;;;;;;4.03;2.50;;;;;;;20.88;24.92;101200.53;5019995;28;20081;-73
2022/02/08 15:34:43;;;;;;;4.80;2.33;;;;;;;20.98;24.63;101224.91;5020768;28;20053;-73
2022/02/08 15:37:12;;;;;;;5.32;2.75;;;;;;;20.96;24.78;101224.44;5024764;28;20751;-73
2022/02/08 15:39:40;;;;;;;3.25;1.60;;;;;;;20.91;24.87;101219.72;5022658;28;20057;-73
2022/02/08 15:42:07;;;;;;;4.47;1.88;;;;;;;20.96;24.82;101224.44;5015936;28;20054;-73
2022/02/08 15:44:35;;;;;;;5.40;1.85;;;;;;;21.04;24.77;101232.94;5017931;28;20045;-73
2022/02/08 15:47:07;;;;;;;5.78;1.60;;;;;;;21.02;24.80;101223.88;5023832;28;20139;-70
2022/02/08 15:49:40;;;;;;;2.60;1.40;;;;;;;21.03;24.80;101219.91;5025525;28;20046;-71
2022/02/08 15:52:27;;;;;;;6.72;2.03;;;;;;;21.03;24.89;101228.44;5026302;28;20288;-70
2022/02/08 15:54:56;;;;;;;2.50;1.55;;;;;;;20.93;24.48;101206.06;5023949;28;20081;-70
2022/02/08 15:58:27;;;;;;;4.47;2.08;;;;;;;21.01;24.32;101219.41;5022723;28;20149;-72
2022/02/08 16:00:40;;;;;;;3.90;1.60;;;;;;;21.01;24.54;101212.88;5025141;28;20128;-70
2022/02/08 16:08:48;;;;;;;11.23;3.42;;;;;;;21.01;26.90;101210.03;5021074;28;20084;-71
2022/02/08 16:13:56;;;;;;;20.30;3.45;;;;;;;20.98;28.93;101208.69;5026583;28;20088;-70
2022/02/08 16:24:47;;;;;;;10.77;3.80;;;;;;;20.63;31.17;101213.56;5046292;28;20049;-69
2022/02/08 16:59:35;;;;;;;10.38;3.55;;;;;;;19.59;33.98;101214.03;5019399;28;20161;-70
2022/02/08 17:02:05;;;;;;;8.45;3.60;;;;;;;19.54;34.23;101213.31;5022160;28;20093;-71
2022/02/08 17:04:35;;;;;;;14.50;3.38;;;;;;;19.29;34.29;101189.38;5017805;28;20454;-69
2022/02/08 17:07:03;;;;;;;13.57;4.10;;;;;;;19.32;34.66;101202.88;5018159;28;20466;-69
2022/02/08 17:12:36;;;;;;;12.43;3.97;;;;;;;19.24;34.59;101217.81;5020090;28;20093;-70
2022/02/08 17:15:42;;;;;;;18.38;4.45;;;;;;;19.20;34.60;101211.13;5028486;28;20579;-70
2022/02/08 17:48:08;;;;;;;10.30;3.88;;;;;;;18.61;35.70;101248.75;5027647;28;20126;-67
2022/02/08 17:50:35;;;;;;;7.55;3.88;;;;;;;18.57;35.40;101250.53;5026651;28;20041;-67
2022/02/08 17:53:04;;;;;;;13.63;4.50;;;;;;;18.48;35.90;101258.91;5046085;28;20121;-68
2022/02/08 17:55:32;;;;;;;9.23;3.13;;;;;;;18.36;36.17;101243.63;5041333;28;20049;-67
2022/02/08 17:58:00;;;;;;;10.50;3.33;;;;;;;18.29;36.38;101246.94;5027582;28;20148;-69
2022/02/08 18:00:32;;;;;;;9.77;4.03;;;;;;;18.29;36.09;101260.19;5024856;28;20057;-68
2022/02/08 18:03:02;;;;;;;15.73;4.57;;;;;;;18.19;36.40;101239.50;5019043;28;20526;-68
2022/02/08 18:05:29;;;;;;;5.75;2.90;;;;;;;18.11;36.59;101237.38;5020500;28;20481;-70
2022/02/08 18:07:57;;;;;;;12.82;3.40;;;;;;;18.19;36.48;101256.47;5025801;28;20139;-68
2022/02/08 18:10:30;;;;;;;11.03;3.80;;;;;;;18.13;36.18;101257.72;5027944;28;20480;-68
2022/02/08 18:12:59;;;;;;;16.57;4.03;;;;;;;17.98;36.61;101226.91;5023265;28;20104;-69
2022/02/08 18:15:27;;;;;;;10.47;3.77;;;;;;;18.08;36.48;101254.97;5028364;28;20041;-71
2022/02/08 18:17:59;;;;;;;10.47;3.77;;;;;;;17.97;36.58;101247.88;5025781;28;20076;-68
2022/02/08 18:20:40;;;;;;;8.67;3.93;;;;;;;18.01;36.34;101257.38;5052400;28;20077;-69
2022/02/08 19:07:25;;;;;;;26.27;10.60;;;;;;;17.49;39.18;101279.25;5015521;28;20045;-67
2022/02/08 19:10:06;;;;;;;28.27;11.07;;;;;;;17.42;39.45;101278.81;5021084;28;20057;-67
2022/02/08 19:12:39;;;;;;;17.83;8.77;;;;;;;17.53;39.30;101289.59;5023411;28;20504;-70
2022/02/08 19:15:36;;;;;;;19.90;10.30;;;;;;;17.37;39.63;101284.56;5018672;28;20074;-67
2022/02/08 19:21:10;;;;;;;11.97;5.87;;;;;;;17.49;39.51;101299.03;5021595;28;20076;-67
2022/02/08 19:23:37;;;;;;;11.40;4.97;;;;;;;17.49;39.38;101290.56;5020157;28;20053;-67
2022/02/08 19:26:07;;;;;;;14.90;5.83;;;;;;;17.50;38.97;101295.03;5020723;28;20048;-67
2022/02/08 19:28:35;;;;;;;9.93;4.30;;;;;;;17.46;39.45;101294.00;5019026;28;20143;-68
2022/02/08 19:31:02;;;;;;;9.10;4.77;;;;;;;17.49;39.50;101299.03;5016315;28;20072;-67
2022/02/08 19:33:29;;;;;;;9.67;4.97;;;;;;;17.50;39.18;101301.56;5018078;28;20064;-67
2022/02/08 19:35:57;;;;;;;8.70;4.10;;;;;;;17.53;39.10;101303.72;5016679;28;20089;-67
2022/02/08 19:38:26;;;;;;;13.77;5.03;;;;;;;17.58;39.32;101305.66;5024262;28;20172;-67
2022/02/08 19:40:54;;;;;;;13.63;4.53;;;;;;;17.57;39.38;101306.78;5022984;28;20136;-68
2022/02/08 19:43:21;;;;;;;12.80;4.00;;;;;;;17.48;39.38;101280.41;5020571;28;20128;-67